sensor_id;sensor_type;location;lat;lon;timestamp;temperature;humidity
32296;DHT22;18781;51.550;5.418;2023-04-24T00:00:03;13.60;71.10
32296;DHT22;18781;51.550;5.418;2023-04-24T00:02:34;13.60;71.20
32296;DHT22;18781;51.550;5.418;2023-04-24T00:04:59;13.60;71.20
32296;DHT22;18781;51.550;5.418;2023-04-24T00:07:29;13.60;71.20
32296;DHT22;18781;51.550;5.418;2023-04-24T00:09:54;13.60;71.80
32296;DHT22;18781;51.550;5.418;2023-04-24T00:12:20;13.60;71.30
32296;DHT22;18781;51.550;5.418;2023-04-24T00:14:46;13.60;71.30
32296;DHT22;18781;51.550;5.418;2023-04-24T00:17:11;13.60;71.40
32296;DHT22;18781;51.550;5.418;2023-04-24T00:19:37;13.60;71.40
32296;DHT22;18781;51.550;5.418;2023-04-24T00:22:03;13.60;71.40
32296;DHT22;18781;51.550;5.418;2023-04-24T00:24:29;13.60;71.40
32296;DHT22;18781;51.550;5.418;2023-04-24T00:26:54;13.60;71.50
32296;DHT22;18781;51.550;5.418;2023-04-24T00:29:20;13.60;71.50
32296;DHT22;18781;51.550;5.418;2023-04-24T00:31:45;13.50;71.50
32296;DHT22;18781;51.550;5.418;2023-04-24T00:34:11;13.50;71.60
32296;DHT22;18781;51.550;5.418;2023-04-24T00:36:37;13.50;71.60
32296;DHT22;18781;51.550;5.418;2023-04-24T00:39:03;13.50;71.60
32296;DHT22;18781;51.550;5.418;2023-04-24T00:41:29;13.50;71.70
32296;DHT22;18781;51.550;5.418;2023-04-24T00:43:55;13.50;71.80
32296;DHT22;18781;51.550;5.418;2023-04-24T00:46:21;13.50;71.80
32296;DHT22;18781;51.550;5.418;2023-04-24T00:48:47;13.50;71.70
32296;DHT22;18781;51.550;5.418;2023-04-24T00:51:13;13.50;71.70
32296;DHT22;18781;51.550;5.418;2023-04-24T00:53:38;13.50;71.80
32296;DHT22;18781;51.550;5.418;2023-04-24T00:56:04;13.50;71.80
32296;DHT22;18781;51.550;5.418;2023-04-24T00:58:30;13.40;71.70
32296;DHT22;18781;51.550;5.418;2023-04-24T01:00:56;13.40;71.80
32296;DHT22;18781;51.550;5.418;2023-04-24T01:03:25;13.40;71.80
32296;DHT22;18781;51.550;5.418;2023-04-24T01:05:52;13.40;72.00
32296;DHT22;18781;51.550;5.418;2023-04-24T01:08:18;13.40;71.90
32296;DHT22;18781;51.550;5.418;2023-04-24T01:10:46;13.40;71.90
32296;DHT22;18781;51.550;5.418;2023-04-24T01:13:13;13.30;72.00
32296;DHT22;18781;51.550;5.418;2023-04-24T01:15:39;13.30;72.00
32296;DHT22;18781;51.550;5.418;2023-04-24T01:18:05;13.30;72.00
32296;DHT22;18781;51.550;5.418;2023-04-24T01:20:31;13.30;72.00
32296;DHT22;18781;51.550;5.418;2023-04-24T01:22:57;13.30;72.10
32296;DHT22;18781;51.550;5.418;2023-04-24T01:25:24;13.30;72.00
32296;DHT22;18781;51.550;5.418;2023-04-24T01:27:51;13.30;72.20
32296;DHT22;18781;51.550;5.418;2023-04-24T01:30:18;13.20;72.20
32296;DHT22;18781;51.550;5.418;2023-04-24T01:32:44;13.20;72.30
32296;DHT22;18781;51.550;5.418;2023-04-24T01:35:10;13.20;72.40
32296;DHT22;18781;51.550;5.418;2023-04-24T01:37:36;13.20;72.50
32296;DHT22;18781;51.550;5.418;2023-04-24T01:40:06;13.20;72.60
32296;DHT22;18781;51.550;5.418;2023-04-24T01:42:32;13.20;72.60
32296;DHT22;18781;51.550;5.418;2023-04-24T01:44:58;13.20;72.70
32296;DHT22;18781;51.550;5.418;2023-04-24T01:47:24;13.10;72.70
32296;DHT22;18781;51.550;5.418;2023-04-24T01:49:50;13.10;72.80
32296;DHT22;18781;51.550;5.418;2023-04-24T01:52:16;13.10;72.80
32296;DHT22;18781;51.550;5.418;2023-04-24T01:54:43;13.10;72.90
32296;DHT22;18781;51.550;5.418;2023-04-24T01:57:08;13.10;73.00
32296;DHT22;18781;51.550;5.418;2023-04-24T01:59:34;13.10;72.90
32296;DHT22;18781;51.550;5.418;2023-04-24T02:02:02;13.10;72.90
32296;DHT22;18781;51.550;5.418;2023-04-24T02:04:28;13.10;72.90
32296;DHT22;18781;51.550;5.418;2023-04-24T02:06:53;13.10;73.00
32296;DHT22;18781;51.550;5.418;2023-04-24T02:09:19;13.10;73.00
32296;DHT22;18781;51.550;5.418;2023-04-24T02:11:44;13.00;72.90
32296;DHT22;18781;51.550;5.418;2023-04-24T02:14:10;13.00;73.00
32296;DHT22;18781;51.550;5.418;2023-04-24T02:16:36;13.00;72.90
32296;DHT22;18781;51.550;5.418;2023-04-24T02:19:02;13.00;72.90
32296;DHT22;18781;51.550;5.418;2023-04-24T02:21:28;13.00;72.90
32296;DHT22;18781;51.550;5.418;2023-04-24T02:23:54;13.00;72.90
32296;DHT22;18781;51.550;5.418;2023-04-24T02:26:19;13.00;72.80
32296;DHT22;18781;51.550;5.418;2023-04-24T02:28:45;13.00;72.80
32296;DHT22;18781;51.550;5.418;2023-04-24T02:31:11;13.00;72.80
32296;DHT22;18781;51.550;5.418;2023-04-24T02:33:36;13.00;73.40
32296;DHT22;18781;51.550;5.418;2023-04-24T02:36:02;13.00;72.80
32296;DHT22;18781;51.550;5.418;2023-04-24T02:38:28;12.90;72.70
32296;DHT22;18781;51.550;5.418;2023-04-24T02:40:54;12.90;73.20
32296;DHT22;18781;51.550;5.418;2023-04-24T02:43:20;12.90;72.80
32296;DHT22;18781;51.550;5.418;2023-04-24T02:45:45;12.90;72.80
32296;DHT22;18781;51.550;5.418;2023-04-24T02:48:11;12.90;72.80
32296;DHT22;18781;51.550;5.418;2023-04-24T02:50:37;12.90;72.80
32296;DHT22;18781;51.550;5.418;2023-04-24T02:53:02;12.80;72.80
32296;DHT22;18781;51.550;5.418;2023-04-24T02:55:28;12.80;72.80
32296;DHT22;18781;51.550;5.418;2023-04-24T02:57:54;12.80;72.90
32296;DHT22;18781;51.550;5.418;2023-04-24T03:00:19;12.80;72.90
32296;DHT22;18781;51.550;5.418;2023-04-24T03:02:45;12.70;72.80
32296;DHT22;18781;51.550;5.418;2023-04-24T03:05:11;12.70;72.90
32296;DHT22;18781;51.550;5.418;2023-04-24T03:07:37;12.70;73.00
32296;DHT22;18781;51.550;5.418;2023-04-24T03:10:04;12.70;73.10
32296;DHT22;18781;51.550;5.418;2023-04-24T03:12:31;12.70;73.10
32296;DHT22;18781;51.550;5.418;2023-04-24T03:14:56;12.70;73.00
32296;DHT22;18781;51.550;5.418;2023-04-24T03:17:22;12.70;73.00
32296;DHT22;18781;51.550;5.418;2023-04-24T03:19:47;12.80;73.00
32296;DHT22;18781;51.550;5.418;2023-04-24T03:22:13;12.70;73.10
32296;DHT22;18781;51.550;5.418;2023-04-24T03:24:39;12.70;73.00
32296;DHT22;18781;51.550;5.418;2023-04-24T03:27:04;12.70;73.10
32296;DHT22;18781;51.550;5.418;2023-04-24T03:29:30;12.70;73.00
32296;DHT22;18781;51.550;5.418;2023-04-24T03:31:55;12.70;73.10
32296;DHT22;18781;51.550;5.418;2023-04-24T03:34:21;12.70;73.10
32296;DHT22;18781;51.550;5.418;2023-04-24T03:36:46;12.70;73.10
32296;DHT22;18781;51.550;5.418;2023-04-24T03:39:15;12.70;73.00
32296;DHT22;18781;51.550;5.418;2023-04-24T03:41:41;12.70;72.90
32296;DHT22;18781;51.550;5.418;2023-04-24T03:44:06;12.70;72.90
32296;DHT22;18781;51.550;5.418;2023-04-24T03:46:32;12.70;72.90
32296;DHT22;18781;51.550;5.418;2023-04-24T03:48:57;12.60;72.90
32296;DHT22;18781;51.550;5.418;2023-04-24T03:51:23;12.70;72.90
32296;DHT22;18781;51.550;5.418;2023-04-24T03:53:49;12.70;72.80
32296;DHT22;18781;51.550;5.418;2023-04-24T03:56:15;12.70;72.90
32296;DHT22;18781;51.550;5.418;2023-04-24T03:58:40;12.70;72.90
32296;DHT22;18781;51.550;5.418;2023-04-24T04:01:06;12.60;72.90
32296;DHT22;18781;51.550;5.418;2023-04-24T04:03:32;12.60;72.90
32296;DHT22;18781;51.550;5.418;2023-04-24T04:05:57;12.70;72.90
32296;DHT22;18781;51.550;5.418;2023-04-24T04:08:23;12.60;72.90
32296;DHT22;18781;51.550;5.418;2023-04-24T04:10:49;12.60;72.90
32296;DHT22;18781;51.550;5.418;2023-04-24T04:13:15;12.60;72.90
32296;DHT22;18781;51.550;5.418;2023-04-24T04:15:40;12.60;72.90
32296;DHT22;18781;51.550;5.418;2023-04-24T04:18:06;12.60;72.90
32296;DHT22;18781;51.550;5.418;2023-04-24T04:20:32;12.60;72.90
32296;DHT22;18781;51.550;5.418;2023-04-24T04:22:57;12.60;73.00
32296;DHT22;18781;51.550;5.418;2023-04-24T04:25:23;12.60;73.10
32296;DHT22;18781;51.550;5.418;2023-04-24T04:27:49;12.60;73.00
32296;DHT22;18781;51.550;5.418;2023-04-24T04:30:14;12.60;73.20
32296;DHT22;18781;51.550;5.418;2023-04-24T04:32:40;12.60;73.20
32296;DHT22;18781;51.550;5.418;2023-04-24T04:35:06;12.60;73.20
32296;DHT22;18781;51.550;5.418;2023-04-24T04:37:35;12.60;73.20
32296;DHT22;18781;51.550;5.418;2023-04-24T04:40:01;12.60;73.30
32296;DHT22;18781;51.550;5.418;2023-04-24T04:42:31;12.50;73.30
32296;DHT22;18781;51.550;5.418;2023-04-24T04:44:57;12.50;73.20
32296;DHT22;18781;51.550;5.418;2023-04-24T04:47:23;12.50;73.40
32296;DHT22;18781;51.550;5.418;2023-04-24T04:49:49;12.50;73.40
32296;DHT22;18781;51.550;5.418;2023-04-24T04:52:17;12.50;73.40
32296;DHT22;18781;51.550;5.418;2023-04-24T04:54:43;12.50;73.50
32296;DHT22;18781;51.550;5.418;2023-04-24T04:57:08;12.50;73.50
32296;DHT22;18781;51.550;5.418;2023-04-24T04:59:34;12.50;73.40
32296;DHT22;18781;51.550;5.418;2023-04-24T05:02:00;12.50;73.60
32296;DHT22;18781;51.550;5.418;2023-04-24T05:04:25;12.50;73.60
32296;DHT22;18781;51.550;5.418;2023-04-24T05:06:52;12.50;73.70
32296;DHT22;18781;51.550;5.418;2023-04-24T05:09:18;12.50;73.80
32296;DHT22;18781;51.550;5.418;2023-04-24T05:11:43;12.40;73.80
32296;DHT22;18781;51.550;5.418;2023-04-24T05:14:09;12.50;73.90
32296;DHT22;18781;51.550;5.418;2023-04-24T05:16:34;12.50;74.00
32296;DHT22;18781;51.550;5.418;2023-04-24T05:19:02;12.40;73.90
32296;DHT22;18781;51.550;5.418;2023-04-24T05:21:27;12.50;74.00
32296;DHT22;18781;51.550;5.418;2023-04-24T05:23:53;12.50;74.00
32296;DHT22;18781;51.550;5.418;2023-04-24T05:26:18;12.50;74.10
32296;DHT22;18781;51.550;5.418;2023-04-24T05:28:44;12.50;74.00
32296;DHT22;18781;51.550;5.418;2023-04-24T05:31:10;12.50;74.20
32296;DHT22;18781;51.550;5.418;2023-04-24T05:33:37;12.50;73.90
32296;DHT22;18781;51.550;5.418;2023-04-24T05:36:03;12.50;73.70
32296;DHT22;18781;51.550;5.418;2023-04-24T05:38:30;12.50;73.70
32296;DHT22;18781;51.550;5.418;2023-04-24T05:40:56;12.50;73.60
32296;DHT22;18781;51.550;5.418;2023-04-24T05:43:21;12.50;73.70
32296;DHT22;18781;51.550;5.418;2023-04-24T05:45:47;12.50;73.80
32296;DHT22;18781;51.550;5.418;2023-04-24T05:48:13;12.40;73.80
32296;DHT22;18781;51.550;5.418;2023-04-24T05:50:38;12.50;73.90
32296;DHT22;18781;51.550;5.418;2023-04-24T05:53:04;12.40;73.90
32296;DHT22;18781;51.550;5.418;2023-04-24T05:55:30;12.40;73.90
32296;DHT22;18781;51.550;5.418;2023-04-24T05:57:56;12.40;74.00
32296;DHT22;18781;51.550;5.418;2023-04-24T06:00:23;12.40;74.10
32296;DHT22;18781;51.550;5.418;2023-04-24T06:02:49;12.40;74.20
32296;DHT22;18781;51.550;5.418;2023-04-24T06:05:14;12.40;74.20
32296;DHT22;18781;51.550;5.418;2023-04-24T06:07:40;12.40;74.20
32296;DHT22;18781;51.550;5.418;2023-04-24T06:10:06;12.40;74.30
32296;DHT22;18781;51.550;5.418;2023-04-24T06:12:31;12.40;74.30
32296;DHT22;18781;51.550;5.418;2023-04-24T06:14:57;12.40;74.30
32296;DHT22;18781;51.550;5.418;2023-04-24T06:17:22;12.40;74.50
32296;DHT22;18781;51.550;5.418;2023-04-24T06:19:48;12.40;74.40
32296;DHT22;18781;51.550;5.418;2023-04-24T06:22:14;12.50;74.50
32296;DHT22;18781;51.550;5.418;2023-04-24T06:24:40;12.50;74.40
32296;DHT22;18781;51.550;5.418;2023-04-24T06:27:06;12.50;74.40
32296;DHT22;18781;51.550;5.418;2023-04-24T06:29:32;12.50;74.40
32296;DHT22;18781;51.550;5.418;2023-04-24T06:31:58;12.50;74.50
32296;DHT22;18781;51.550;5.418;2023-04-24T06:34:24;12.50;74.50
32296;DHT22;18781;51.550;5.418;2023-04-24T06:36:50;12.50;74.50
32296;DHT22;18781;51.550;5.418;2023-04-24T06:39:15;12.50;74.50
32296;DHT22;18781;51.550;5.418;2023-04-24T06:41:41;12.50;74.40
32296;DHT22;18781;51.550;5.418;2023-04-24T06:44:07;12.50;74.20
32296;DHT22;18781;51.550;5.418;2023-04-24T06:46:32;12.50;74.20
32296;DHT22;18781;51.550;5.418;2023-04-24T06:48:58;12.50;74.30
32296;DHT22;18781;51.550;5.418;2023-04-24T06:51:24;12.50;74.20
32296;DHT22;18781;51.550;5.418;2023-04-24T06:53:51;12.50;74.40
32296;DHT22;18781;51.550;5.418;2023-04-24T06:56:17;12.50;74.50
32296;DHT22;18781;51.550;5.418;2023-04-24T06:58:43;12.40;74.40
32296;DHT22;18781;51.550;5.418;2023-04-24T07:01:09;12.40;74.50
32296;DHT22;18781;51.550;5.418;2023-04-24T07:03:35;12.40;74.50
32296;DHT22;18781;51.550;5.418;2023-04-24T07:06:00;12.40;74.30
32296;DHT22;18781;51.550;5.418;2023-04-24T07:08:26;12.40;74.20
32296;DHT22;18781;51.550;5.418;2023-04-24T07:10:52;12.40;73.60
32296;DHT22;18781;51.550;5.418;2023-04-24T07:13:17;12.40;73.60
32296;DHT22;18781;51.550;5.418;2023-04-24T07:15:43;12.40;73.60
32296;DHT22;18781;51.550;5.418;2023-04-24T07:18:09;12.30;73.50
32296;DHT22;18781;51.550;5.418;2023-04-24T07:20:34;12.30;73.60
32296;DHT22;18781;51.550;5.418;2023-04-24T07:23:00;12.30;73.50
32296;DHT22;18781;51.550;5.418;2023-04-24T07:25:26;12.20;73.70
32296;DHT22;18781;51.550;5.418;2023-04-24T07:27:52;12.20;73.70
32296;DHT22;18781;51.550;5.418;2023-04-24T07:30:18;12.10;73.80
32296;DHT22;18781;51.550;5.418;2023-04-24T07:32:43;12.10;73.90
32296;DHT22;18781;51.550;5.418;2023-04-24T07:35:09;12.10;74.00
32296;DHT22;18781;51.550;5.418;2023-04-24T07:37:35;12.10;74.30
32296;DHT22;18781;51.550;5.418;2023-04-24T07:40:01;12.00;74.50
32296;DHT22;18781;51.550;5.418;2023-04-24T07:42:27;12.00;74.70
32296;DHT22;18781;51.550;5.418;2023-04-24T07:44:53;12.00;74.40
32296;DHT22;18781;51.550;5.418;2023-04-24T07:47:19;12.00;74.40
32296;DHT22;18781;51.550;5.418;2023-04-24T07:49:44;12.00;74.50
32296;DHT22;18781;51.550;5.418;2023-04-24T07:52:10;12.00;74.40
32296;DHT22;18781;51.550;5.418;2023-04-24T07:54:35;12.00;74.40
32296;DHT22;18781;51.550;5.418;2023-04-24T07:57:03;12.00;74.50
32296;DHT22;18781;51.550;5.418;2023-04-24T07:59:29;12.00;74.50
32296;DHT22;18781;51.550;5.418;2023-04-24T08:01:54;11.90;74.40
32296;DHT22;18781;51.550;5.418;2023-04-24T08:04:20;11.90;74.40
32296;DHT22;18781;51.550;5.418;2023-04-24T08:06:47;11.90;74.40
32296;DHT22;18781;51.550;5.418;2023-04-24T08:09:13;12.00;74.60
32296;DHT22;18781;51.550;5.418;2023-04-24T08:11:38;11.90;74.60
32296;DHT22;18781;51.550;5.418;2023-04-24T08:14:04;11.90;74.60
32296;DHT22;18781;51.550;5.418;2023-04-24T08:16:29;12.00;74.80
32296;DHT22;18781;51.550;5.418;2023-04-24T08:18:55;11.90;74.80
32296;DHT22;18781;51.550;5.418;2023-04-24T08:21:21;12.00;74.90
32296;DHT22;18781;51.550;5.418;2023-04-24T08:23:46;12.00;75.10
32296;DHT22;18781;51.550;5.418;2023-04-24T08:26:13;12.00;75.20
32296;DHT22;18781;51.550;5.418;2023-04-24T08:28:38;12.00;75.10
32296;DHT22;18781;51.550;5.418;2023-04-24T08:31:04;12.00;75.20
32296;DHT22;18781;51.550;5.418;2023-04-24T08:33:30;12.10;75.20
32296;DHT22;18781;51.550;5.418;2023-04-24T08:36:01;12.10;75.20
32296;DHT22;18781;51.550;5.418;2023-04-24T08:38:27;12.10;75.20
32296;DHT22;18781;51.550;5.418;2023-04-24T08:40:53;12.10;75.10
32296;DHT22;18781;51.550;5.418;2023-04-24T08:43:21;12.20;75.00
32296;DHT22;18781;51.550;5.418;2023-04-24T08:45:47;12.20;74.90
32296;DHT22;18781;51.550;5.418;2023-04-24T08:48:13;12.20;74.70
32296;DHT22;18781;51.550;5.418;2023-04-24T08:50:40;12.20;74.50
32296;DHT22;18781;51.550;5.418;2023-04-24T08:53:08;12.20;74.60
32296;DHT22;18781;51.550;5.418;2023-04-24T08:55:34;12.20;74.70
32296;DHT22;18781;51.550;5.418;2023-04-24T08:58:01;12.30;74.60
32296;DHT22;18781;51.550;5.418;2023-04-24T09:00:28;12.30;74.70
32296;DHT22;18781;51.550;5.418;2023-04-24T09:02:53;12.30;74.30
32296;DHT22;18781;51.550;5.418;2023-04-24T09:05:21;12.30;73.90
32296;DHT22;18781;51.550;5.418;2023-04-24T09:07:52;12.30;73.90
32296;DHT22;18781;51.550;5.418;2023-04-24T09:10:20;12.30;73.10
32296;DHT22;18781;51.550;5.418;2023-04-24T09:12:46;12.30;73.30
32296;DHT22;18781;51.550;5.418;2023-04-24T09:15:12;12.30;72.60
32296;DHT22;18781;51.550;5.418;2023-04-24T09:17:38;12.30;72.40
32296;DHT22;18781;51.550;5.418;2023-04-24T09:20:04;12.30;72.30
32296;DHT22;18781;51.550;5.418;2023-04-24T09:22:30;12.30;72.10
32296;DHT22;18781;51.550;5.418;2023-04-24T09:25:04;12.30;71.90
32296;DHT22;18781;51.550;5.418;2023-04-24T09:27:31;12.30;72.20
32296;DHT22;18781;51.550;5.418;2023-04-24T09:29:58;12.30;72.40
32296;DHT22;18781;51.550;5.418;2023-04-24T09:32:24;12.30;72.20
32296;DHT22;18781;51.550;5.418;2023-04-24T09:35:09;12.30;72.50
32296;DHT22;18781;51.550;5.418;2023-04-24T09:37:41;12.40;72.10
32296;DHT22;18781;51.550;5.418;2023-04-24T09:40:16;12.40;72.40
32296;DHT22;18781;51.550;5.418;2023-04-24T09:42:51;12.40;72.40
32296;DHT22;18781;51.550;5.418;2023-04-24T09:45:17;12.40;72.40
32296;DHT22;18781;51.550;5.418;2023-04-24T09:47:43;12.40;72.30
32296;DHT22;18781;51.550;5.418;2023-04-24T09:50:18;12.40;72.20
32296;DHT22;18781;51.550;5.418;2023-04-24T09:52:55;12.40;71.70
32296;DHT22;18781;51.550;5.418;2023-04-24T09:55:21;12.50;71.40
32296;DHT22;18781;51.550;5.418;2023-04-24T09:57:48;12.50;71.60
32296;DHT22;18781;51.550;5.418;2023-04-24T10:00:18;12.50;71.70
32296;DHT22;18781;51.550;5.418;2023-04-24T10:02:43;12.50;71.10
32296;DHT22;18781;51.550;5.418;2023-04-24T10:05:11;12.60;71.50
32296;DHT22;18781;51.550;5.418;2023-04-24T10:07:37;12.60;70.50
32296;DHT22;18781;51.550;5.418;2023-04-24T10:10:04;12.60;69.90
32296;DHT22;18781;51.550;5.418;2023-04-24T10:12:30;12.60;69.20
32296;DHT22;18781;51.550;5.418;2023-04-24T10:14:56;12.60;69.60
32296;DHT22;18781;51.550;5.418;2023-04-24T10:17:22;12.70;69.60
32296;DHT22;18781;51.550;5.418;2023-04-24T10:19:50;12.70;69.70
32296;DHT22;18781;51.550;5.418;2023-04-24T10:22:17;12.70;69.50
32296;DHT22;18781;51.550;5.418;2023-04-24T10:24:44;12.70;69.40
32296;DHT22;18781;51.550;5.418;2023-04-24T10:27:11;12.80;69.60
32296;DHT22;18781;51.550;5.418;2023-04-24T10:29:38;12.80;67.50
32296;DHT22;18781;51.550;5.418;2023-04-24T10:32:07;12.90;67.10
32296;DHT22;18781;51.550;5.418;2023-04-24T10:34:32;12.90;67.30
32296;DHT22;18781;51.550;5.418;2023-04-24T10:36:58;12.90;67.00
32296;DHT22;18781;51.550;5.418;2023-04-24T10:39:24;12.90;67.30
32296;DHT22;18781;51.550;5.418;2023-04-24T10:41:50;12.90;67.00
32296;DHT22;18781;51.550;5.418;2023-04-24T10:44:16;12.90;66.90
32296;DHT22;18781;51.550;5.418;2023-04-24T10:46:46;12.90;66.30
32296;DHT22;18781;51.550;5.418;2023-04-24T10:49:28;12.90;66.40
32296;DHT22;18781;51.550;5.418;2023-04-24T10:52:00;13.00;66.20
32296;DHT22;18781;51.550;5.418;2023-04-24T10:54:33;13.00;66.50
32296;DHT22;18781;51.550;5.418;2023-04-24T10:59:44;13.00;66.90
32296;DHT22;18781;51.550;5.418;2023-04-24T11:02:09;13.00;67.00
32296;DHT22;18781;51.550;5.418;2023-04-24T11:04:35;13.00;66.80
32296;DHT22;18781;51.550;5.418;2023-04-24T11:07:03;13.00;66.30
32296;DHT22;18781;51.550;5.418;2023-04-24T11:09:31;13.10;65.30
32296;DHT22;18781;51.550;5.418;2023-04-24T11:12:23;13.00;65.90
32296;DHT22;18781;51.550;5.418;2023-04-24T11:17:50;13.10;65.80
32296;DHT22;18781;51.550;5.418;2023-04-24T11:20:23;13.10;65.20
32296;DHT22;18781;51.550;5.418;2023-04-24T11:22:52;13.00;65.10
32296;DHT22;18781;51.550;5.418;2023-04-24T11:25:18;13.00;65.90
32296;DHT22;18781;51.550;5.418;2023-04-24T11:27:44;13.00;65.40
32296;DHT22;18781;51.550;5.418;2023-04-24T11:30:18;13.00;65.30
32296;DHT22;18781;51.550;5.418;2023-04-24T11:32:48;13.00;65.50
32296;DHT22;18781;51.550;5.418;2023-04-24T11:35:19;13.00;65.70
32296;DHT22;18781;51.550;5.418;2023-04-24T11:37:51;13.10;66.00
32296;DHT22;18781;51.550;5.418;2023-04-24T11:40:19;13.10;66.30
32296;DHT22;18781;51.550;5.418;2023-04-24T11:42:50;13.10;66.30
32296;DHT22;18781;51.550;5.418;2023-04-24T11:45:22;13.10;66.10
32296;DHT22;18781;51.550;5.418;2023-04-24T11:47:48;13.20;66.50
32296;DHT22;18781;51.550;5.418;2023-04-24T11:50:18;13.20;66.50
32296;DHT22;18781;51.550;5.418;2023-04-24T11:52:45;13.30;65.70
32296;DHT22;18781;51.550;5.418;2023-04-24T11:57:46;13.30;65.90
32296;DHT22;18781;51.550;5.418;2023-04-24T12:00:19;13.30;66.10
32296;DHT22;18781;51.550;5.418;2023-04-24T12:02:46;13.30;65.60
32296;DHT22;18781;51.550;5.418;2023-04-24T12:05:22;13.40;65.50
32296;DHT22;18781;51.550;5.418;2023-04-24T12:07:48;13.40;65.10
32296;DHT22;18781;51.550;5.418;2023-04-24T12:10:13;13.40;65.70
32296;DHT22;18781;51.550;5.418;2023-04-24T12:12:40;13.40;65.20
32296;DHT22;18781;51.550;5.418;2023-04-24T12:15:09;13.40;65.50
32296;DHT22;18781;51.550;5.418;2023-04-24T12:17:35;13.40;64.60
32296;DHT22;18781;51.550;5.418;2023-04-24T12:20:07;13.40;64.80
32296;DHT22;18781;51.550;5.418;2023-04-24T12:23:08;13.50;64.60
32296;DHT22;18781;51.550;5.418;2023-04-24T12:25:34;13.50;65.30
32296;DHT22;18781;51.550;5.418;2023-04-24T12:30:33;13.50;64.90
32296;DHT22;18781;51.550;5.418;2023-04-24T12:32:59;13.60;65.20
32296;DHT22;18781;51.550;5.418;2023-04-24T12:35:28;13.60;65.40
32296;DHT22;18781;51.550;5.418;2023-04-24T12:37:54;13.60;64.60
32296;DHT22;18781;51.550;5.418;2023-04-24T12:40:21;13.70;64.50
32296;DHT22;18781;51.550;5.418;2023-04-24T12:42:49;13.70;63.70
32296;DHT22;18781;51.550;5.418;2023-04-24T12:45:15;13.70;63.50
32296;DHT22;18781;51.550;5.418;2023-04-24T12:47:42;13.80;63.00
32296;DHT22;18781;51.550;5.418;2023-04-24T12:50:10;13.80;62.70
32296;DHT22;18781;51.550;5.418;2023-04-24T12:52:36;13.80;63.10
32296;DHT22;18781;51.550;5.418;2023-04-24T12:55:02;13.80;63.10
32296;DHT22;18781;51.550;5.418;2023-04-24T12:57:29;13.80;63.00
32296;DHT22;18781;51.550;5.418;2023-04-24T12:59:56;13.80;62.70
32296;DHT22;18781;51.550;5.418;2023-04-24T13:02:23;13.80;62.20
32296;DHT22;18781;51.550;5.418;2023-04-24T13:04:49;13.80;62.40
32296;DHT22;18781;51.550;5.418;2023-04-24T13:07:15;13.80;62.10
32296;DHT22;18781;51.550;5.418;2023-04-24T13:09:41;13.90;60.80
32296;DHT22;18781;51.550;5.418;2023-04-24T13:12:08;13.80;61.40
32296;DHT22;18781;51.550;5.418;2023-04-24T13:14:34;13.70;62.10
32296;DHT22;18781;51.550;5.418;2023-04-24T13:17:00;13.60;63.00
32296;DHT22;18781;51.550;5.418;2023-04-24T13:19:26;13.60;63.70
32296;DHT22;18781;51.550;5.418;2023-04-24T13:21:53;13.60;63.80
32296;DHT22;18781;51.550;5.418;2023-04-24T13:24:19;13.60;64.30
32296;DHT22;18781;51.550;5.418;2023-04-24T13:26:45;13.60;65.00
32296;DHT22;18781;51.550;5.418;2023-04-24T13:29:11;13.60;64.70
32296;DHT22;18781;51.550;5.418;2023-04-24T13:31:36;13.70;64.70
32296;DHT22;18781;51.550;5.418;2023-04-24T13:34:02;13.70;64.00
32296;DHT22;18781;51.550;5.418;2023-04-24T13:36:29;13.70;62.50
32296;DHT22;18781;51.550;5.418;2023-04-24T13:38:55;13.70;62.00
32296;DHT22;18781;51.550;5.418;2023-04-24T13:41:21;13.60;62.50
32296;DHT22;18781;51.550;5.418;2023-04-24T13:43:46;13.60;62.80
32296;DHT22;18781;51.550;5.418;2023-04-24T13:46:12;13.50;63.50
32296;DHT22;18781;51.550;5.418;2023-04-24T13:48:38;13.50;63.70
32296;DHT22;18781;51.550;5.418;2023-04-24T13:51:03;13.40;63.90
32296;DHT22;18781;51.550;5.418;2023-04-24T13:53:29;13.40;64.50
32296;DHT22;18781;51.550;5.418;2023-04-24T13:55:55;13.40;64.90
32296;DHT22;18781;51.550;5.418;2023-04-24T13:58:20;13.40;65.20
32296;DHT22;18781;51.550;5.418;2023-04-24T14:00:46;13.40;65.20
32296;DHT22;18781;51.550;5.418;2023-04-24T14:03:11;13.50;66.40
32296;DHT22;18781;51.550;5.418;2023-04-24T14:05:37;13.60;66.00
32296;DHT22;18781;51.550;5.418;2023-04-24T14:08:02;13.60;65.50
32296;DHT22;18781;51.550;5.418;2023-04-24T14:10:28;13.70;64.80
32296;DHT22;18781;51.550;5.418;2023-04-24T14:12:54;13.70;65.00
32296;DHT22;18781;51.550;5.418;2023-04-24T14:15:20;13.70;64.70
32296;DHT22;18781;51.550;5.418;2023-04-24T14:17:45;13.70;65.00
32296;DHT22;18781;51.550;5.418;2023-04-24T14:20:12;13.70;65.10
32296;DHT22;18781;51.550;5.418;2023-04-24T14:22:37;13.70;64.70
32296;DHT22;18781;51.550;5.418;2023-04-24T14:25:04;13.80;64.70
32296;DHT22;18781;51.550;5.418;2023-04-24T14:27:31;13.80;64.60
32296;DHT22;18781;51.550;5.418;2023-04-24T14:29:57;13.80;64.40
32296;DHT22;18781;51.550;5.418;2023-04-24T14:32:23;13.80;64.30
32296;DHT22;18781;51.550;5.418;2023-04-24T14:34:48;13.90;64.30
32296;DHT22;18781;51.550;5.418;2023-04-24T14:37:14;13.90;65.00
32296;DHT22;18781;51.550;5.418;2023-04-24T14:39:40;13.90;64.10
32296;DHT22;18781;51.550;5.418;2023-04-24T14:42:06;14.00;64.40
32296;DHT22;18781;51.550;5.418;2023-04-24T14:44:31;14.00;64.00
32296;DHT22;18781;51.550;5.418;2023-04-24T14:46:58;14.10;64.50
32296;DHT22;18781;51.550;5.418;2023-04-24T14:49:24;14.10;63.50
32296;DHT22;18781;51.550;5.418;2023-04-24T14:51:49;14.10;63.60
32296;DHT22;18781;51.550;5.418;2023-04-24T14:54:15;14.20;63.80
32296;DHT22;18781;51.550;5.418;2023-04-24T14:56:41;14.30;63.60
32296;DHT22;18781;51.550;5.418;2023-04-24T14:59:08;14.30;63.10
32296;DHT22;18781;51.550;5.418;2023-04-24T15:01:33;14.40;63.30
32296;DHT22;18781;51.550;5.418;2023-04-24T15:03:59;14.50;63.20
32296;DHT22;18781;51.550;5.418;2023-04-24T15:06:25;14.60;62.90
32296;DHT22;18781;51.550;5.418;2023-04-24T15:08:50;14.60;62.60
32296;DHT22;18781;51.550;5.418;2023-04-24T15:11:16;14.70;62.20
32296;DHT22;18781;51.550;5.418;2023-04-24T15:13:42;14.70;60.80
32296;DHT22;18781;51.550;5.418;2023-04-24T15:16:08;14.80;60.00
32296;DHT22;18781;51.550;5.418;2023-04-24T15:18:33;14.80;60.00
32296;DHT22;18781;51.550;5.418;2023-04-24T15:20:59;14.80;59.80
32296;DHT22;18781;51.550;5.418;2023-04-24T15:23:24;14.70;58.80
32296;DHT22;18781;51.550;5.418;2023-04-24T15:25:50;14.70;58.50
32296;DHT22;18781;51.550;5.418;2023-04-24T15:28:16;14.60;58.80
32296;DHT22;18781;51.550;5.418;2023-04-24T15:30:43;14.50;58.60
32296;DHT22;18781;51.550;5.418;2023-04-24T15:33:08;14.30;59.10
32296;DHT22;18781;51.550;5.418;2023-04-24T15:35:34;14.20;59.70